createdAt,value
2023-02-08T00:01:50.819Z,10.23
2023-02-08T00:04:22.094Z,11.60
2023-02-08T00:06:53.361Z,10.83
2023-02-08T00:09:24.756Z,11.87
2023-02-08T00:11:56.202Z,11.93
2023-02-08T00:14:27.479Z,11.93
2023-02-08T00:16:58.802Z,11.50
2023-02-08T00:19:30.192Z,12.07
2023-02-08T00:22:01.471Z,11.13
2023-02-08T00:24:33.194Z,10.73
2023-02-08T00:27:04.603Z,10.73
2023-02-08T00:29:35.932Z,10.93
2023-02-08T00:32:07.222Z,10.83
2023-02-08T00:34:38.859Z,10.03
2023-02-08T00:37:10.895Z,12.73
2023-02-08T00:39:42.250Z,11.37
2023-02-08T00:42:13.506Z,10.13
2023-02-08T00:44:45.284Z,11.20
2023-02-08T00:47:16.649Z,10.60
2023-02-08T00:49:47.948Z,11.27
2023-02-08T00:52:19.530Z,10.80
2023-02-08T00:54:50.810Z,9.97
2023-02-08T00:57:22.082Z,9.97
2023-02-08T00:59:53.489Z,10.07
2023-02-08T01:02:25.142Z,11.10
2023-02-08T01:04:56.423Z,9.80
2023-02-08T01:07:27.755Z,10.33
2023-02-08T01:10:00.551Z,11.97
2023-02-08T01:12:32.032Z,11.10
2023-02-08T01:15:03.853Z,11.27
2023-02-08T01:17:35.245Z,11.77
2023-02-08T01:20:06.979Z,10.63
2023-02-08T01:22:38.239Z,11.40
2023-02-08T01:25:09.491Z,13.00
2023-02-08T01:27:40.778Z,11.77
2023-02-08T01:30:12.845Z,12.20
2023-02-08T01:32:44.188Z,11.10
2023-02-08T01:35:15.558Z,10.97
2023-02-08T01:37:46.818Z,10.80
2023-02-08T01:40:18.155Z,10.63
2023-02-08T01:42:49.442Z,10.33
2023-02-08T01:45:27.895Z,9.93
2023-02-08T01:48:06.304Z,10.43
2023-02-08T01:51:02.722Z,10.13
2023-02-08T01:53:35.358Z,9.18
2023-02-08T01:56:18.430Z,10.17
2023-02-08T01:58:53.866Z,8.60
2023-02-08T02:01:27.220Z,9.85
2023-02-08T02:04:04.224Z,10.27
2023-02-08T02:06:40.876Z,9.77
2023-02-08T02:09:19.941Z,9.07
2023-02-08T02:11:53.313Z,9.03
2023-02-08T02:14:25.553Z,9.03
2023-02-08T02:16:59.730Z,9.53
2023-02-08T02:19:31.065Z,8.63
2023-02-08T02:22:48.556Z,9.43
2023-02-08T02:25:32.157Z,9.32
2023-02-08T02:28:38.613Z,9.83
2023-02-08T02:31:47.211Z,8.97
2023-02-08T02:34:37.102Z,10.23
2023-02-08T02:37:28.198Z,10.27
2023-02-08T02:40:25.721Z,8.40
2023-02-08T02:43:33.020Z,9.00
2023-02-08T02:46:38.774Z,8.60
2023-02-08T02:49:36.062Z,8.57
2023-02-08T02:52:21.120Z,9.68
2023-02-08T02:54:55.554Z,9.80
2023-02-08T02:57:32.347Z,10.47
2023-02-08T03:00:10.436Z,10.83
2023-02-08T03:02:42.091Z,10.83
2023-02-08T03:05:13.626Z,10.87
2023-02-08T03:07:53.695Z,10.47
2023-02-08T03:10:49.372Z,11.33
2023-02-08T03:13:35.354Z,9.23
2023-02-08T03:16:19.289Z,9.82
2023-02-08T03:19:04.912Z,9.63
2023-02-08T03:21:55.297Z,10.20
2023-02-08T03:24:36.078Z,9.77
2023-02-08T03:27:22.620Z,11.07
2023-02-08T03:30:13.269Z,11.25
2023-02-08T03:32:51.678Z,10.17
2023-02-08T03:35:29.555Z,10.00
2023-02-08T03:38:29.371Z,10.50
2023-02-08T03:41:04.287Z,10.93
2023-02-08T03:43:40.141Z,10.40
2023-02-08T03:46:15.971Z,10.55
2023-02-08T03:48:54.195Z,9.82
2023-02-08T03:51:28.100Z,10.30
2023-02-08T03:54:03.237Z,11.20
2023-02-08T03:56:41.531Z,11.30
2023-02-08T03:59:20.052Z,11.83
2023-02-08T04:01:58.794Z,13.40
2023-02-08T04:04:35.256Z,12.20
2023-02-08T04:09:38.961Z,10.55
2023-02-08T04:12:10.392Z,9.43
2023-02-08T04:14:41.798Z,13.82
2023-02-08T04:17:13.079Z,11.98
2023-02-08T04:19:44.435Z,11.23
2023-02-08T04:22:15.757Z,12.15
2023-02-08T04:24:47.062Z,11.68
2023-02-08T04:27:18.479Z,11.57
2023-02-08T04:29:49.853Z,11.25
2023-02-08T04:32:21.165Z,12.27
2023-02-08T04:34:52.478Z,11.43
2023-02-08T04:37:23.879Z,11.33
2023-02-08T04:39:55.159Z,11.73
2023-02-08T04:42:26.571Z,11.48
2023-02-08T04:44:57.859Z,13.73
2023-02-08T04:47:29.314Z,11.40
2023-02-08T04:50:00.662Z,11.95
2023-02-08T04:52:32.057Z,12.93
2023-02-08T04:55:03.427Z,14.10
2023-02-08T04:57:34.709Z,12.17
2023-02-08T05:00:06.625Z,12.68
2023-02-08T05:02:37.901Z,11.85
2023-02-08T05:05:09.217Z,12.95
2023-02-08T05:07:43.592Z,12.07
2023-02-08T05:10:15.649Z,11.65
2023-02-08T05:12:47.090Z,11.80
2023-02-08T05:15:18.399Z,11.52
2023-02-08T05:17:49.744Z,12.70
2023-02-08T05:20:21.575Z,11.52
2023-02-08T05:22:52.874Z,11.55
2023-02-08T05:25:24.236Z,12.95
2023-02-08T05:27:55.688Z,11.27
2023-02-08T05:30:27.071Z,11.98
2023-02-08T05:32:58.616Z,11.52
2023-02-08T05:35:30.147Z,13.20
2023-02-08T05:38:01.568Z,11.98
2023-02-08T05:40:33.457Z,13.80
2023-02-08T05:43:04.820Z,13.38
2023-02-08T05:45:36.190Z,13.10
2023-02-08T05:48:07.527Z,13.48
2023-02-08T05:50:39.262Z,14.10
2023-02-08T05:53:10.904Z,13.32
2023-02-08T05:55:46.260Z,14.15
2023-02-08T05:58:17.594Z,14.43
2023-02-08T06:00:49.048Z,12.83
2023-02-08T06:03:20.599Z,13.47
2023-02-08T06:05:52.084Z,15.15
2023-02-08T06:08:23.376Z,15.07
2023-02-08T06:10:54.731Z,13.70
2023-02-08T06:13:26.122Z,15.02
2023-02-08T06:15:57.795Z,14.52
2023-02-08T06:18:29.119Z,14.18
2023-02-08T06:21:00.448Z,13.98
2023-02-08T06:23:31.966Z,16.08
2023-02-08T06:26:03.642Z,14.85
2023-02-08T06:28:35.035Z,13.43
2023-02-08T06:31:06.334Z,12.75
2023-02-08T06:33:37.717Z,12.88
2023-02-08T06:36:09.250Z,14.35
2023-02-08T06:38:40.637Z,14.68
2023-02-08T06:41:11.924Z,12.75
2023-02-08T06:43:43.302Z,12.73
2023-02-08T06:46:14.601Z,14.95
2023-02-08T06:48:46.064Z,14.32
2023-02-08T06:51:17.448Z,14.60
2023-02-08T06:53:48.909Z,13.43
2023-02-08T06:56:20.246Z,12.87
2023-02-08T06:58:51.564Z,13.88
2023-02-08T07:01:22.993Z,13.90
2023-02-08T07:03:54.435Z,13.48
2023-02-08T07:06:25.799Z,12.93
2023-02-08T07:08:57.249Z,13.75
2023-02-08T07:11:28.590Z,12.30
2023-02-08T07:14:00.111Z,13.73
2023-02-08T07:16:31.414Z,14.85
2023-02-08T07:19:02.818Z,15.68
2023-02-08T07:21:34.289Z,13.27
2023-02-08T07:24:05.902Z,13.68
2023-02-08T07:26:37.307Z,14.18
2023-02-08T07:29:08.631Z,15.77
2023-02-08T07:31:40.093Z,15.35
2023-02-08T07:34:11.497Z,15.20
2023-02-08T07:36:42.774Z,15.68
2023-02-08T07:39:14.199Z,14.07
2023-02-08T07:41:45.542Z,14.48
2023-02-08T07:44:17.064Z,14.77
2023-02-08T07:46:48.432Z,16.60
2023-02-08T07:49:19.789Z,14.95
2023-02-08T07:51:51.065Z,16.17
2023-02-08T07:54:22.516Z,14.98
2023-02-08T07:56:53.897Z,14.30
2023-02-08T07:59:25.382Z,14.80
2023-02-08T08:01:56.758Z,16.27
2023-02-08T08:04:28.157Z,14.70
2023-02-08T08:06:59.431Z,14.67
2023-02-08T08:09:30.938Z,17.53
2023-02-08T08:12:02.701Z,15.77
2023-02-08T08:14:34.029Z,15.03
2023-02-08T08:17:05.367Z,17.23
2023-02-08T08:19:36.748Z,16.40
2023-02-08T08:22:08.031Z,17.30
2023-02-08T08:24:39.311Z,14.80
2023-02-08T08:27:10.687Z,17.87
2023-02-08T08:29:42.156Z,17.80
2023-02-08T08:32:13.417Z,15.80
2023-02-08T08:34:44.715Z,15.27
2023-02-08T08:37:15.988Z,15.23
2023-02-08T08:39:47.280Z,14.93
2023-02-08T08:42:18.723Z,16.73
2023-02-08T08:44:50.131Z,13.57
2023-02-08T08:47:21.734Z,13.40
2023-02-08T08:49:53.175Z,14.10
2023-02-08T08:52:24.509Z,13.97
2023-02-08T08:54:55.891Z,12.23
2023-02-08T08:57:27.204Z,14.00
2023-02-08T08:59:58.584Z,12.23
2023-02-08T09:02:29.971Z,12.73
2023-02-08T09:05:02.677Z,11.70
2023-02-08T09:07:34.286Z,12.30
2023-02-08T09:10:06.047Z,11.80
2023-02-08T09:12:37.396Z,11.23
2023-02-08T09:15:08.912Z,11.50
2023-02-08T09:17:40.198Z,10.30
2023-02-08T09:20:12.592Z,8.77
2023-02-08T09:22:43.852Z,10.37
2023-02-08T09:25:15.492Z,9.27
2023-02-08T09:27:46.872Z,9.27
2023-02-08T09:30:18.144Z,9.97
2023-02-08T09:32:49.418Z,9.70
2023-02-08T09:35:20.694Z,8.90
2023-02-08T09:37:55.324Z,9.13
2023-02-08T09:40:42.771Z,9.00
2023-02-08T09:43:57.560Z,8.60
2023-02-08T09:46:32.637Z,7.93
2023-02-08T09:49:08.856Z,8.63
2023-02-08T09:51:53.577Z,9.57
2023-02-08T09:54:39.017Z,9.27
2023-02-08T09:57:16.172Z,8.67
2023-02-08T10:00:00.142Z,6.87
2023-02-08T10:02:34.099Z,6.57
2023-02-08T10:05:20.475Z,7.40
2023-02-08T10:07:51.907Z,6.30
2023-02-08T10:10:59.086Z,7.17
2023-02-08T10:13:45.703Z,7.47
2023-02-08T10:16:41.952Z,7.60
2023-02-08T10:19:46.852Z,7.50
2023-02-08T10:22:48.990Z,7.80
2023-02-08T10:25:27.308Z,7.37
2023-02-08T10:28:23.246Z,8.17
2023-02-08T10:31:10.535Z,8.17
2023-02-08T10:34:00.884Z,8.60
2023-02-08T10:36:39.424Z,10.70
2023-02-08T10:39:23.963Z,9.10
2023-02-08T10:41:55.653Z,8.13
2023-02-08T10:44:55.944Z,6.70
2023-02-08T10:47:42.979Z,8.23
2023-02-08T10:50:35.531Z,8.43
2023-02-08T10:53:15.354Z,7.10
2023-02-08T10:55:48.188Z,7.47
2023-02-08T10:58:22.975Z,7.10
2023-02-08T11:00:55.160Z,7.03
2023-02-08T11:03:29.213Z,5.77
2023-02-08T11:06:00.672Z,7.10
2023-02-08T11:08:32.036Z,6.03
2023-02-08T11:11:10.260Z,6.17
2023-02-08T11:13:44.352Z,6.80
2023-02-08T11:16:26.690Z,6.03
2023-02-08T11:19:07.739Z,5.50
2023-02-08T11:21:41.094Z,4.73
2023-02-08T11:24:17.476Z,5.57
2023-02-08T11:26:50.945Z,6.23
2023-02-08T11:29:25.824Z,5.50
2023-02-08T11:32:01.358Z,4.70
2023-02-08T11:34:39.138Z,4.18
2023-02-08T11:37:17.538Z,4.57
2023-02-08T11:39:54.139Z,4.53
2023-02-08T11:42:40.983Z,5.10
2023-02-08T11:48:04.934Z,4.07
2023-02-08T11:50:39.284Z,3.73
2023-02-08T11:53:27.569Z,4.43
2023-02-08T11:56:06.326Z,4.13
2023-02-08T11:58:37.658Z,4.00
2023-02-08T12:01:21.130Z,3.97
2023-02-08T12:03:52.780Z,4.40
2023-02-08T12:06:33.804Z,4.50
2023-02-08T12:09:30.507Z,4.23
2023-02-08T12:12:26.609Z,4.18
2023-02-08T12:15:16.840Z,4.10
2023-02-08T12:17:48.059Z,3.97
2023-02-08T12:20:42.438Z,3.83
2023-02-08T12:23:49.125Z,4.03
2023-02-08T12:26:45.049Z,3.80
2023-02-08T12:29:47.986Z,3.20
2023-02-08T12:32:51.929Z,3.73
2023-02-08T12:36:02.790Z,3.57
2023-02-08T12:39:19.699Z,3.77
2023-02-08T12:42:19.424Z,4.47
2023-02-08T12:45:09.319Z,4.40
2023-02-08T12:47:58.269Z,3.63
2023-02-08T12:50:52.825Z,3.00
2023-02-08T12:53:43.797Z,2.97
2023-02-08T12:56:26.299Z,3.83
2023-02-08T12:59:11.790Z,3.87
2023-02-08T13:01:48.402Z,3.80
2023-02-08T13:04:29.702Z,2.90
2023-02-08T13:07:09.974Z,3.53
2023-02-08T13:10:02.515Z,3.20
2023-02-08T13:12:42.141Z,3.63
2023-02-08T13:15:30.157Z,3.77
2023-02-08T13:18:29.731Z,3.97
2023-02-08T13:21:11.469Z,4.23
2023-02-08T13:23:52.436Z,4.60
2023-02-08T13:26:28.005Z,4.57
2023-02-08T13:29:02.458Z,3.40
2023-02-08T13:31:40.953Z,3.77
2023-02-08T13:34:21.489Z,3.93
2023-02-08T13:36:57.362Z,3.60
2023-02-08T13:39:36.736Z,3.90
2023-02-08T13:42:33.007Z,4.07
2023-02-08T13:45:07.478Z,4.50
2023-02-08T13:47:49.188Z,3.13
2023-02-08T13:50:48.516Z,3.63
2023-02-08T13:53:38.435Z,3.77
2023-02-08T13:56:12.067Z,3.57
2023-02-08T13:58:49.368Z,4.10
2023-02-08T14:01:22.405Z,4.17
2023-02-08T14:04:09.826Z,3.73
2023-02-08T14:06:43.990Z,3.73
2023-02-08T14:09:15.254Z,3.13
2023-02-08T14:11:54.572Z,3.00
2023-02-08T14:14:36.342Z,2.80
2023-02-08T14:17:22.217Z,3.90
2023-02-08T14:20:03.896Z,3.40
2023-02-08T14:22:51.868Z,2.70
2023-02-08T14:25:45.007Z,3.93
2023-02-08T14:28:30.398Z,3.70
2023-02-08T14:31:07.183Z,3.40
2023-02-08T14:33:42.948Z,2.97
2023-02-08T14:36:35.001Z,3.25
2023-02-08T14:39:26.300Z,2.80
2023-02-08T14:42:05.274Z,2.67
2023-02-08T14:44:39.522Z,2.40
2023-02-08T14:47:36.807Z,2.83
2023-02-08T14:53:13.298Z,2.40
2023-02-08T14:55:52.289Z,2.73
2023-02-08T14:58:37.497Z,2.60
2023-02-08T15:01:44.039Z,3.33
2023-02-08T15:04:18.251Z,2.30
2023-02-08T15:07:04.624Z,2.40
2023-02-08T15:09:38.681Z,2.35
2023-02-08T15:12:24.626Z,2.83
2023-02-08T15:14:59.172Z,2.13
2023-02-08T15:17:38.566Z,2.13
2023-02-08T15:20:22.343Z,2.00
2023-02-08T15:23:02.548Z,2.20
2023-02-08T15:25:36.839Z,1.70
2023-02-08T15:28:20.753Z,2.50
2023-02-08T15:30:59.401Z,2.77
2023-02-08T15:33:31.150Z,3.03
2023-02-08T15:36:06.775Z,2.70
2023-02-08T15:38:38.779Z,2.38
2023-02-08T15:41:14.442Z,2.03
2023-02-08T15:43:45.735Z,4.72
2023-02-08T15:46:26.594Z,4.57
2023-02-08T15:48:59.351Z,2.00
2023-02-08T15:51:30.889Z,2.07
2023-02-08T15:54:02.942Z,2.40
2023-02-08T15:56:40.716Z,1.90
2023-02-08T15:59:25.471Z,1.83
2023-02-08T16:01:58.292Z,2.00
2023-02-08T16:04:29.616Z,2.10
2023-02-08T16:07:01.240Z,2.77
2023-02-08T16:09:32.692Z,2.73
2023-02-08T16:12:04.299Z,2.70
2023-02-08T16:14:52.200Z,2.30
2023-02-08T16:17:44.684Z,3.00
2023-02-08T16:20:26.003Z,3.17
2023-02-08T16:23:21.351Z,3.40
2023-02-08T16:25:52.661Z,2.40
2023-02-08T16:28:28.013Z,2.73
2023-02-08T16:31:01.965Z,3.80
2023-02-08T16:33:37.143Z,6.43
2023-02-08T16:36:22.888Z,5.73
2023-02-08T16:39:16.079Z,6.97
2023-02-08T16:41:58.847Z,5.97
2023-02-08T16:44:36.585Z,8.93
2023-02-08T16:47:28.921Z,11.93
2023-02-08T16:50:00.206Z,9.47
2023-02-08T16:52:31.964Z,7.97
2023-02-08T16:55:03.836Z,9.83
2023-02-08T16:57:44.432Z,7.67
2023-02-08T17:00:23.390Z,7.03
2023-02-08T17:02:55.775Z,6.80
2023-02-08T17:05:30.673Z,7.60
2023-02-08T17:08:03.955Z,7.27
2023-02-08T17:10:35.912Z,6.50
2023-02-08T17:13:19.918Z,7.40
2023-02-08T17:15:52.908Z,7.00
2023-02-08T17:18:24.208Z,6.90
2023-02-08T17:20:59.517Z,7.80
2023-02-08T17:23:30.938Z,7.47
2023-02-08T17:26:02.938Z,7.93
2023-02-08T17:28:35.669Z,7.73
2023-02-08T17:31:07.184Z,7.80
2023-02-08T17:33:40.667Z,7.60
2023-02-08T17:36:14.677Z,9.07
2023-02-08T17:38:46.971Z,9.50
2023-02-08T17:41:19.952Z,9.00
2023-02-08T17:43:54.530Z,9.70
2023-02-08T17:46:27.808Z,9.80
2023-02-08T17:49:01.413Z,8.60
2023-02-08T17:51:34.194Z,10.40
2023-02-08T17:54:05.671Z,10.30
2023-02-08T17:56:37.021Z,10.47
2023-02-08T17:59:08.727Z,10.00
2023-02-08T18:01:40.492Z,10.47
2023-02-08T18:04:13.217Z,10.73
2023-02-08T18:06:44.472Z,11.13
2023-02-08T18:09:15.899Z,9.60
2023-02-08T18:11:47.154Z,10.73
2023-02-08T18:14:18.822Z,10.77
2023-02-08T18:16:50.190Z,12.30
2023-02-08T18:19:22.642Z,12.30
2023-02-08T18:21:53.996Z,13.57
2023-02-08T18:24:25.256Z,12.50
2023-02-08T18:26:58.922Z,12.67
2023-02-08T18:29:31.111Z,13.03
2023-02-08T18:32:02.612Z,12.20
2023-02-08T18:34:34.372Z,13.23
2023-02-08T18:37:05.619Z,11.57
2023-02-08T18:39:36.999Z,13.53
2023-02-08T18:42:08.459Z,12.27
2023-02-08T18:44:39.806Z,10.30
2023-02-08T18:47:11.128Z,13.00
2023-02-08T18:49:42.478Z,12.37
2023-02-08T18:52:15.755Z,13.10
2023-02-08T18:54:47.066Z,13.07
2023-02-08T18:57:18.574Z,12.03
2023-02-08T18:59:49.937Z,11.70
2023-02-08T19:02:23.183Z,12.77
2023-02-08T19:04:54.494Z,12.13
2023-02-08T19:07:25.848Z,13.00
2023-02-08T19:09:57.228Z,11.57
2023-02-08T19:12:28.563Z,12.80
2023-02-08T19:14:59.819Z,11.93
2023-02-08T19:17:31.113Z,13.17
2023-02-08T19:20:02.391Z,14.03
2023-02-08T19:22:33.895Z,13.50
2023-02-08T19:25:05.572Z,13.87
2023-02-08T19:27:37.019Z,13.70
2023-02-08T19:30:09.216Z,13.43
2023-02-08T19:32:40.465Z,14.90
2023-02-08T19:35:12.258Z,13.40
2023-02-08T19:37:45.554Z,14.20
2023-02-08T19:40:18.195Z,13.10
2023-02-08T19:42:49.518Z,13.90
2023-02-08T19:45:20.805Z,14.00
2023-02-08T19:47:52.730Z,13.10
2023-02-08T19:50:24.052Z,13.97
2023-02-08T19:52:55.355Z,15.03
2023-02-08T19:55:26.631Z,14.27
2023-02-08T19:57:57.925Z,15.37
2023-02-08T20:00:29.563Z,14.97
2023-02-08T20:03:07.766Z,13.53
2023-02-08T20:05:45.495Z,14.60
2023-02-08T20:08:18.609Z,14.90
2023-02-08T20:10:50.294Z,14.17
2023-02-08T20:13:22.829Z,14.33
2023-02-08T20:16:01.676Z,13.53
2023-02-08T20:18:33.060Z,12.83
2023-02-08T20:21:05.267Z,14.23
2023-02-08T20:23:36.989Z,15.23
2023-02-08T20:26:15.362Z,15.33
2023-02-08T20:28:51.112Z,15.00
2023-02-08T20:31:42.965Z,15.50
2023-02-08T20:34:16.438Z,17.93
2023-02-08T20:37:05.857Z,15.63
2023-02-08T20:39:38.071Z,15.07
2023-02-08T20:42:10.005Z,15.40
2023-02-08T20:44:41.363Z,16.77
2023-02-08T20:47:18.957Z,16.20
2023-02-08T20:49:51.130Z,16.40
2023-02-08T20:52:22.748Z,14.03
2023-02-08T20:54:54.099Z,17.33
2023-02-08T20:57:25.615Z,17.10
2023-02-08T20:59:56.903Z,16.13
2023-02-08T21:02:28.228Z,15.77
2023-02-08T21:05:00.624Z,16.73
2023-02-08T21:07:31.932Z,16.43
2023-02-08T21:10:03.910Z,17.13
2023-02-08T21:12:36.465Z,16.30
2023-02-08T21:15:09.212Z,16.27
2023-02-08T21:17:41.168Z,19.07
2023-02-08T21:20:12.781Z,19.53
2023-02-08T21:22:44.084Z,16.37
2023-02-08T21:25:15.477Z,18.27
2023-02-08T21:27:46.810Z,18.20
2023-02-08T21:30:18.196Z,16.30
2023-02-08T21:32:49.465Z,16.13
2023-02-08T21:35:20.737Z,16.03
2023-02-08T21:37:52.016Z,16.00
2023-02-08T21:40:23.295Z,17.40
2023-02-08T21:42:54.580Z,17.00
2023-02-08T21:45:25.881Z,16.23
2023-02-08T21:47:57.273Z,16.83
2023-02-08T21:50:47.395Z,17.50
2023-02-08T21:53:37.473Z,15.80
2023-02-08T21:56:09.788Z,17.90
2023-02-08T21:58:41.099Z,17.53
2023-02-08T22:01:12.420Z,17.77
2023-02-08T22:03:43.775Z,17.30
2023-02-08T22:06:15.075Z,14.73
2023-02-08T22:08:46.386Z,17.73
2023-02-08T22:11:17.676Z,17.90
2023-02-08T22:13:48.933Z,17.80
2023-02-08T22:16:20.235Z,17.00
2023-02-08T22:18:51.528Z,16.13
2023-02-08T22:21:22.806Z,16.90
2023-02-08T22:23:54.073Z,14.93
2023-02-08T22:26:25.692Z,17.77
2023-02-08T22:28:57.028Z,15.73
2023-02-08T22:31:28.416Z,16.90
2023-02-08T22:33:59.785Z,15.97
2023-02-08T22:36:31.192Z,17.40
2023-02-08T22:39:02.739Z,16.40
2023-02-08T22:41:34.243Z,16.53
2023-02-08T22:44:05.685Z,15.63
2023-02-08T22:46:36.987Z,17.13
2023-02-08T22:49:08.790Z,17.00
2023-02-08T22:51:40.198Z,15.27
2023-02-08T22:54:11.474Z,16.80
2023-02-08T22:56:42.841Z,19.73
2023-02-08T22:59:14.095Z,17.60
2023-02-08T23:01:45.592Z,16.40
2023-02-08T23:04:16.911Z,15.50
2023-02-08T23:06:48.343Z,15.77
2023-02-08T23:09:19.670Z,17.37
2023-02-08T23:11:51.112Z,17.67
2023-02-08T23:14:22.354Z,16.23
2023-02-08T23:16:53.720Z,17.10
2023-02-08T23:19:25.377Z,18.13
2023-02-08T23:22:01.090Z,16.23
2023-02-08T23:24:32.385Z,16.23
2023-02-08T23:27:03.805Z,17.57
2023-02-08T23:29:35.160Z,18.83
2023-02-08T23:32:06.524Z,18.07
2023-02-08T23:34:37.906Z,20.37
2023-02-08T23:37:09.338Z,18.67
2023-02-08T23:39:40.589Z,19.47
2023-02-08T23:42:25.276Z,16.83
2023-02-08T23:44:59.784Z,15.97
2023-02-08T23:47:31.615Z,15.87
2023-02-08T23:50:02.989Z,16.33
2023-02-08T23:52:36.113Z,17.03
2023-02-08T23:55:08.086Z,18.47
2023-02-08T23:57:39.420Z,18.63
